sensor_id;sensor_type;location;lat;lon;timestamp;P1;durP1;ratioP1;P2;durP2;ratioP2
16665;SDS011;8446;50.998;6.250;2023-02-28T00:02:26;5.82;;;4.07;;
16665;SDS011;8446;50.998;6.250;2023-02-28T00:04:54;7.07;;;3.65;;
16665;SDS011;8446;50.998;6.250;2023-02-28T00:07:28;4.47;;;3.15;;
16665;SDS011;8446;50.998;6.250;2023-02-28T00:09:55;5.32;;;3.90;;
16665;SDS011;8446;50.998;6.250;2023-02-28T00:12:22;7.22;;;3.28;;
16665;SDS011;8446;50.998;6.250;2023-02-28T00:14:49;4.95;;;3.20;;
16665;SDS011;8446;50.998;6.250;2023-02-28T00:17:16;4.03;;;3.20;;
16665;SDS011;8446;50.998;6.250;2023-02-28T00:19:46;3.20;;;2.95;;
16665;SDS011;8446;50.998;6.250;2023-02-28T00:22:14;4.85;;;3.70;;
16665;SDS011;8446;50.998;6.250;2023-02-28T00:24:41;3.45;;;2.60;;
16665;SDS011;8446;50.998;6.250;2023-02-28T00:27:09;5.53;;;3.03;;
16665;SDS011;8446;50.998;6.250;2023-02-28T00:29:37;7.97;;;3.95;;
16665;SDS011;8446;50.998;6.250;2023-02-28T00:32:05;5.25;;;3.20;;
16665;SDS011;8446;50.998;6.250;2023-02-28T00:34:32;5.28;;;4.07;;
16665;SDS011;8446;50.998;6.250;2023-02-28T00:37:02;4.10;;;2.80;;
16665;SDS011;8446;50.998;6.250;2023-02-28T00:39:31;4.68;;;3.25;;
16665;SDS011;8446;50.998;6.250;2023-02-28T00:41:58;9.05;;;3.00;;
16665;SDS011;8446;50.998;6.250;2023-02-28T00:44:25;4.55;;;2.90;;
16665;SDS011;8446;50.998;6.250;2023-02-28T00:46:52;6.70;;;3.13;;
16665;SDS011;8446;50.998;6.250;2023-02-28T00:49:20;4.65;;;3.22;;
16665;SDS011;8446;50.998;6.250;2023-02-28T00:51:47;4.60;;;2.90;;
16665;SDS011;8446;50.998;6.250;2023-02-28T00:54:15;2.75;;;2.40;;
16665;SDS011;8446;50.998;6.250;2023-02-28T00:56:43;9.55;;;3.00;;
16665;SDS011;8446;50.998;6.250;2023-02-28T00:59:11;3.53;;;2.63;;
16665;SDS011;8446;50.998;6.250;2023-02-28T01:01:39;3.15;;;2.63;;
16665;SDS011;8446;50.998;6.250;2023-02-28T01:04:06;9.95;;;2.90;;
16665;SDS011;8446;50.998;6.250;2023-02-28T01:06:33;5.43;;;3.00;;
16665;SDS011;8446;50.998;6.250;2023-02-28T01:09:00;4.90;;;2.78;;
16665;SDS011;8446;50.998;6.250;2023-02-28T01:11:28;4.55;;;2.70;;
16665;SDS011;8446;50.998;6.250;2023-02-28T01:13:56;4.07;;;2.60;;
16665;SDS011;8446;50.998;6.250;2023-02-28T01:16:23;7.82;;;2.88;;
16665;SDS011;8446;50.998;6.250;2023-02-28T01:18:50;4.90;;;2.60;;
16665;SDS011;8446;50.998;6.250;2023-02-28T01:21:18;2.97;;;2.67;;
16665;SDS011;8446;50.998;6.250;2023-02-28T01:23:45;4.75;;;2.58;;
16665;SDS011;8446;50.998;6.250;2023-02-28T01:26:13;3.97;;;2.40;;
16665;SDS011;8446;50.998;6.250;2023-02-28T01:28:41;3.85;;;2.72;;
16665;SDS011;8446;50.998;6.250;2023-02-28T01:31:09;9.32;;;2.60;;
16665;SDS011;8446;50.998;6.250;2023-02-28T01:33:37;4.00;;;2.80;;
16665;SDS011;8446;50.998;6.250;2023-02-28T01:36:05;2.75;;;2.03;;
16665;SDS011;8446;50.998;6.250;2023-02-28T01:38:33;7.18;;;2.75;;
16665;SDS011;8446;50.998;6.250;2023-02-28T01:41:00;2.90;;;2.67;;
16665;SDS011;8446;50.998;6.250;2023-02-28T01:43:28;3.30;;;3.00;;
16665;SDS011;8446;50.998;6.250;2023-02-28T01:45:56;3.60;;;2.80;;
16665;SDS011;8446;50.998;6.250;2023-02-28T01:48:26;5.63;;;3.10;;
16665;SDS011;8446;50.998;6.250;2023-02-28T01:50:54;5.88;;;2.63;;
16665;SDS011;8446;50.998;6.250;2023-02-28T01:53:26;2.45;;;2.28;;
16665;SDS011;8446;50.998;6.250;2023-02-28T01:55:56;11.00;;;3.47;;
16665;SDS011;8446;50.998;6.250;2023-02-28T01:58:23;4.40;;;2.67;;
16665;SDS011;8446;50.998;6.250;2023-02-28T02:00:50;3.70;;;2.97;;
16665;SDS011;8446;50.998;6.250;2023-02-28T02:03:18;3.25;;;2.95;;
16665;SDS011;8446;50.998;6.250;2023-02-28T02:05:47;4.00;;;2.88;;
16665;SDS011;8446;50.998;6.250;2023-02-28T02:08:15;3.28;;;2.97;;
16665;SDS011;8446;50.998;6.250;2023-02-28T02:10:43;5.18;;;3.13;;
16665;SDS011;8446;50.998;6.250;2023-02-28T02:13:28;7.55;;;2.60;;
16665;SDS011;8446;50.998;6.250;2023-02-28T02:16:00;4.22;;;3.30;;
16665;SDS011;8446;50.998;6.250;2023-02-28T02:18:31;5.18;;;2.85;;
16665;SDS011;8446;50.998;6.250;2023-02-28T02:23:55;4.43;;;2.53;;
16665;SDS011;8446;50.998;6.250;2023-02-28T02:26:41;6.38;;;2.33;;
16665;SDS011;8446;50.998;6.250;2023-02-28T02:29:35;3.22;;;2.80;;
16665;SDS011;8446;50.998;6.250;2023-02-28T02:32:20;6.38;;;2.88;;
16665;SDS011;8446;50.998;6.250;2023-02-28T02:34:59;3.00;;;2.70;;
16665;SDS011;8446;50.998;6.250;2023-02-28T02:37:29;3.85;;;2.28;;
16665;SDS011;8446;50.998;6.250;2023-02-28T02:40:02;4.90;;;3.17;;
16665;SDS011;8446;50.998;6.250;2023-02-28T02:42:32;2.50;;;2.30;;
16665;SDS011;8446;50.998;6.250;2023-02-28T02:45:03;4.45;;;2.45;;
16665;SDS011;8446;50.998;6.250;2023-02-28T02:47:32;3.40;;;2.78;;
16665;SDS011;8446;50.998;6.250;2023-02-28T02:50:02;2.58;;;2.20;;
16665;SDS011;8446;50.998;6.250;2023-02-28T02:52:32;5.60;;;2.78;;
16665;SDS011;8446;50.998;6.250;2023-02-28T02:55:01;2.63;;;2.42;;
16665;SDS011;8446;50.998;6.250;2023-02-28T02:57:30;4.35;;;2.65;;
16665;SDS011;8446;50.998;6.250;2023-02-28T02:59:59;14.40;;;2.80;;
16665;SDS011;8446;50.998;6.250;2023-02-28T03:02:28;12.70;;;3.13;;
16665;SDS011;8446;50.998;6.250;2023-02-28T03:04:59;8.50;;;2.67;;
16665;SDS011;8446;50.998;6.250;2023-02-28T03:07:29;13.38;;;2.80;;
16665;SDS011;8446;50.998;6.250;2023-02-28T03:09:56;5.13;;;2.55;;
16665;SDS011;8446;50.998;6.250;2023-02-28T03:12:26;4.20;;;2.72;;
16665;SDS011;8446;50.998;6.250;2023-02-28T03:14:59;4.93;;;3.20;;
16665;SDS011;8446;50.998;6.250;2023-02-28T03:17:36;4.68;;;3.22;;
16665;SDS011;8446;50.998;6.250;2023-02-28T03:20:09;3.83;;;3.35;;
16665;SDS011;8446;50.998;6.250;2023-02-28T03:22:50;7.38;;;3.40;;
16665;SDS011;8446;50.998;6.250;2023-02-28T03:25:20;8.55;;;3.25;;
16665;SDS011;8446;50.998;6.250;2023-02-28T03:27:51;4.68;;;3.08;;
16665;SDS011;8446;50.998;6.250;2023-02-28T03:30:22;10.52;;;4.55;;
16665;SDS011;8446;50.998;6.250;2023-02-28T03:32:52;6.68;;;4.05;;
16665;SDS011;8446;50.998;6.250;2023-02-28T03:35:22;6.03;;;4.15;;
16665;SDS011;8446;50.998;6.250;2023-02-28T03:37:52;5.55;;;3.95;;
16665;SDS011;8446;50.998;6.250;2023-02-28T03:40:20;5.68;;;3.72;;
16665;SDS011;8446;50.998;6.250;2023-02-28T03:42:49;6.88;;;3.85;;
16665;SDS011;8446;50.998;6.250;2023-02-28T03:45:18;8.20;;;4.10;;
16665;SDS011;8446;50.998;6.250;2023-02-28T03:47:47;4.68;;;4.00;;
16665;SDS011;8446;50.998;6.250;2023-02-28T03:50:17;6.38;;;4.10;;
16665;SDS011;8446;50.998;6.250;2023-02-28T03:52:47;3.88;;;3.40;;
16665;SDS011;8446;50.998;6.250;2023-02-28T03:55:15;4.95;;;3.72;;
16665;SDS011;8446;50.998;6.250;2023-02-28T03:57:45;5.95;;;4.32;;
16665;SDS011;8446;50.998;6.250;2023-02-28T04:00:14;4.65;;;3.30;;
16665;SDS011;8446;50.998;6.250;2023-02-28T04:02:43;4.65;;;3.97;;
16665;SDS011;8446;50.998;6.250;2023-02-28T04:05:10;5.40;;;3.90;;
16665;SDS011;8446;50.998;6.250;2023-02-28T04:07:37;10.32;;;4.50;;
16665;SDS011;8446;50.998;6.250;2023-02-28T04:10:05;6.28;;;3.75;;
16665;SDS011;8446;50.998;6.250;2023-02-28T04:12:33;5.80;;;4.10;;
16665;SDS011;8446;50.998;6.250;2023-02-28T04:15:00;7.95;;;4.32;;
16665;SDS011;8446;50.998;6.250;2023-02-28T04:17:27;9.48;;;4.40;;
16665;SDS011;8446;50.998;6.250;2023-02-28T04:19:55;4.70;;;3.92;;
16665;SDS011;8446;50.998;6.250;2023-02-28T04:22:22;9.27;;;5.43;;
16665;SDS011;8446;50.998;6.250;2023-02-28T04:24:51;7.10;;;5.05;;
16665;SDS011;8446;50.998;6.250;2023-02-28T04:27:19;9.27;;;4.53;;
16665;SDS011;8446;50.998;6.250;2023-02-28T04:29:48;9.68;;;3.85;;
16665;SDS011;8446;50.998;6.250;2023-02-28T04:32:15;4.93;;;4.07;;
16665;SDS011;8446;50.998;6.250;2023-02-28T04:34:42;7.03;;;4.50;;
16665;SDS011;8446;50.998;6.250;2023-02-28T04:37:09;10.68;;;4.13;;
16665;SDS011;8446;50.998;6.250;2023-02-28T04:39:36;10.07;;;4.80;;
16665;SDS011;8446;50.998;6.250;2023-02-28T04:42:04;7.25;;;3.72;;
16665;SDS011;8446;50.998;6.250;2023-02-28T04:44:31;7.97;;;4.07;;
16665;SDS011;8446;50.998;6.250;2023-02-28T04:46:59;4.63;;;3.80;;
16665;SDS011;8446;50.998;6.250;2023-02-28T04:49:26;7.82;;;3.95;;
16665;SDS011;8446;50.998;6.250;2023-02-28T04:51:53;4.22;;;3.63;;
16665;SDS011;8446;50.998;6.250;2023-02-28T04:54:20;8.63;;;3.30;;
16665;SDS011;8446;50.998;6.250;2023-02-28T04:56:48;7.43;;;4.10;;
16665;SDS011;8446;50.998;6.250;2023-02-28T04:59:15;6.05;;;3.90;;
16665;SDS011;8446;50.998;6.250;2023-02-28T05:01:45;5.35;;;4.70;;
16665;SDS011;8446;50.998;6.250;2023-02-28T05:04:14;9.48;;;4.47;;
16665;SDS011;8446;50.998;6.250;2023-02-28T05:06:41;5.15;;;4.10;;
16665;SDS011;8446;50.998;6.250;2023-02-28T05:09:08;6.72;;;4.10;;
16665;SDS011;8446;50.998;6.250;2023-02-28T05:11:36;5.45;;;4.20;;
16665;SDS011;8446;50.998;6.250;2023-02-28T05:14:04;9.02;;;4.47;;
16665;SDS011;8446;50.998;6.250;2023-02-28T05:16:32;3.75;;;3.40;;
16665;SDS011;8446;50.998;6.250;2023-02-28T05:18:59;6.05;;;3.92;;
16665;SDS011;8446;50.998;6.250;2023-02-28T05:21:29;5.10;;;3.95;;
16665;SDS011;8446;50.998;6.250;2023-02-28T05:23:57;5.93;;;3.72;;
16665;SDS011;8446;50.998;6.250;2023-02-28T05:26:25;8.93;;;4.60;;
16665;SDS011;8446;50.998;6.250;2023-02-28T05:28:52;4.85;;;3.58;;
16665;SDS011;8446;50.998;6.250;2023-02-28T05:31:20;5.43;;;4.00;;
16665;SDS011;8446;50.998;6.250;2023-02-28T05:33:47;4.15;;;3.45;;
16665;SDS011;8446;50.998;6.250;2023-02-28T05:36:14;12.05;;;3.50;;
16665;SDS011;8446;50.998;6.250;2023-02-28T05:38:42;5.38;;;3.35;;
16665;SDS011;8446;50.998;6.250;2023-02-28T05:41:10;4.65;;;3.40;;
16665;SDS011;8446;50.998;6.250;2023-02-28T05:43:37;5.22;;;3.28;;
16665;SDS011;8446;50.998;6.250;2023-02-28T05:46:05;5.50;;;3.92;;
16665;SDS011;8446;50.998;6.250;2023-02-28T05:48:32;6.95;;;3.45;;
16665;SDS011;8446;50.998;6.250;2023-02-28T05:50:59;7.22;;;3.83;;
16665;SDS011;8446;50.998;6.250;2023-02-28T05:53:27;4.25;;;2.80;;
16665;SDS011;8446;50.998;6.250;2023-02-28T05:55:56;7.57;;;3.30;;
16665;SDS011;8446;50.998;6.250;2023-02-28T05:58:23;5.35;;;3.38;;
16665;SDS011;8446;50.998;6.250;2023-02-28T06:00:54;8.27;;;3.25;;
16665;SDS011;8446;50.998;6.250;2023-02-28T06:03:21;3.42;;;2.70;;
16665;SDS011;8446;50.998;6.250;2023-02-28T06:05:48;4.60;;;3.45;;
16665;SDS011;8446;50.998;6.250;2023-02-28T06:08:15;4.63;;;3.13;;
16665;SDS011;8446;50.998;6.250;2023-02-28T06:10:43;3.25;;;2.85;;
16665;SDS011;8446;50.998;6.250;2023-02-28T06:13:12;3.20;;;2.90;;
16665;SDS011;8446;50.998;6.250;2023-02-28T06:15:40;6.05;;;3.45;;
16665;SDS011;8446;50.998;6.250;2023-02-28T06:18:07;4.45;;;3.55;;
16665;SDS011;8446;50.998;6.250;2023-02-28T06:20:34;6.93;;;3.60;;
16665;SDS011;8446;50.998;6.250;2023-02-28T06:23:01;5.22;;;3.60;;
16665;SDS011;8446;50.998;6.250;2023-02-28T06:25:28;6.70;;;3.60;;
16665;SDS011;8446;50.998;6.250;2023-02-28T06:27:55;6.97;;;3.28;;
16665;SDS011;8446;50.998;6.250;2023-02-28T06:30:24;3.90;;;3.40;;
16665;SDS011;8446;50.998;6.250;2023-02-28T06:32:53;4.60;;;3.00;;
16665;SDS011;8446;50.998;6.250;2023-02-28T06:35:20;5.18;;;2.83;;
16665;SDS011;8446;50.998;6.250;2023-02-28T06:37:47;3.50;;;3.13;;
16665;SDS011;8446;50.998;6.250;2023-02-28T06:40:15;3.78;;;3.45;;
16665;SDS011;8446;50.998;6.250;2023-02-28T06:42:42;5.75;;;4.05;;
16665;SDS011;8446;50.998;6.250;2023-02-28T06:45:09;6.75;;;3.25;;
16665;SDS011;8446;50.998;6.250;2023-02-28T06:47:39;4.30;;;3.58;;
16665;SDS011;8446;50.998;6.250;2023-02-28T06:50:07;14.98;;;2.90;;
16665;SDS011;8446;50.998;6.250;2023-02-28T06:52:35;3.45;;;3.15;;
16665;SDS011;8446;50.998;6.250;2023-02-28T06:55:02;6.85;;;3.90;;
16665;SDS011;8446;50.998;6.250;2023-02-28T06:57:29;4.30;;;3.50;;
16665;SDS011;8446;50.998;6.250;2023-02-28T06:59:57;3.40;;;3.10;;
16665;SDS011;8446;50.998;6.250;2023-02-28T07:02:24;4.47;;;3.78;;
16665;SDS011;8446;50.998;6.250;2023-02-28T07:04:53;10.23;;;3.20;;
16665;SDS011;8446;50.998;6.250;2023-02-28T07:07:20;5.45;;;3.80;;
16665;SDS011;8446;50.998;6.250;2023-02-28T07:09:47;5.60;;;2.95;;
16665;SDS011;8446;50.998;6.250;2023-02-28T07:12:15;3.53;;;3.10;;
16665;SDS011;8446;50.998;6.250;2023-02-28T07:14:42;5.55;;;3.80;;
16665;SDS011;8446;50.998;6.250;2023-02-28T07:17:09;3.95;;;3.13;;
16665;SDS011;8446;50.998;6.250;2023-02-28T07:19:37;4.95;;;3.10;;
16665;SDS011;8446;50.998;6.250;2023-02-28T07:22:05;3.58;;;3.28;;
16665;SDS011;8446;50.998;6.250;2023-02-28T07:24:33;4.10;;;3.35;;
16665;SDS011;8446;50.998;6.250;2023-02-28T07:27:00;4.20;;;3.10;;
16665;SDS011;8446;50.998;6.250;2023-02-28T07:29:27;4.45;;;2.88;;
16665;SDS011;8446;50.998;6.250;2023-02-28T07:31:55;3.83;;;2.95;;
16665;SDS011;8446;50.998;6.250;2023-02-28T07:34:22;4.80;;;3.22;;
16665;SDS011;8446;50.998;6.250;2023-02-28T07:36:52;3.80;;;2.85;;
16665;SDS011;8446;50.998;6.250;2023-02-28T07:39:21;4.30;;;3.50;;
16665;SDS011;8446;50.998;6.250;2023-02-28T07:41:48;3.40;;;3.10;;
16665;SDS011;8446;50.998;6.250;2023-02-28T07:44:15;6.65;;;3.42;;
16665;SDS011;8446;50.998;6.250;2023-02-28T07:46:42;3.83;;;3.40;;
16665;SDS011;8446;50.998;6.250;2023-02-28T07:49:09;5.75;;;3.70;;
16665;SDS011;8446;50.998;6.250;2023-02-28T07:51:36;5.90;;;3.58;;
16665;SDS011;8446;50.998;6.250;2023-02-28T07:54:03;7.20;;;4.05;;
16665;SDS011;8446;50.998;6.250;2023-02-28T07:56:32;7.35;;;3.30;;
16665;SDS011;8446;50.998;6.250;2023-02-28T07:58:59;4.32;;;2.72;;
16665;SDS011;8446;50.998;6.250;2023-02-28T08:01:27;3.95;;;2.83;;
16665;SDS011;8446;50.998;6.250;2023-02-28T08:03:54;5.63;;;3.03;;
16665;SDS011;8446;50.998;6.250;2023-02-28T08:06:22;3.67;;;2.35;;
16665;SDS011;8446;50.998;6.250;2023-02-28T08:08:50;2.70;;;2.50;;
16665;SDS011;8446;50.998;6.250;2023-02-28T08:11:17;4.60;;;3.15;;
16665;SDS011;8446;50.998;6.250;2023-02-28T08:13:46;3.10;;;2.75;;
16665;SDS011;8446;50.998;6.250;2023-02-28T08:16:13;4.75;;;2.53;;
16665;SDS011;8446;50.998;6.250;2023-02-28T08:18:46;2.60;;;2.40;;
16665;SDS011;8446;50.998;6.250;2023-02-28T08:21:13;2.22;;;2.05;;
16665;SDS011;8446;50.998;6.250;2023-02-28T08:23:40;4.93;;;2.65;;
16665;SDS011;8446;50.998;6.250;2023-02-28T08:26:07;2.50;;;2.30;;
16665;SDS011;8446;50.998;6.250;2023-02-28T08:28:34;5.95;;;2.35;;
16665;SDS011;8446;50.998;6.250;2023-02-28T08:31:02;5.45;;;2.30;;
16665;SDS011;8446;50.998;6.250;2023-02-28T08:33:33;2.60;;;2.40;;
16665;SDS011;8446;50.998;6.250;2023-02-28T08:36:00;6.00;;;2.30;;
16665;SDS011;8446;50.998;6.250;2023-02-28T08:38:27;2.63;;;2.03;;
16665;SDS011;8446;50.998;6.250;2023-02-28T08:40:57;3.03;;;2.65;;
16665;SDS011;8446;50.998;6.250;2023-02-28T08:43:24;3.97;;;2.65;;
16665;SDS011;8446;50.998;6.250;2023-02-28T08:45:52;3.72;;;2.33;;
16665;SDS011;8446;50.998;6.250;2023-02-28T08:48:20;4.65;;;2.72;;
16665;SDS011;8446;50.998;6.250;2023-02-28T08:50:54;4.10;;;2.45;;
16665;SDS011;8446;50.998;6.250;2023-02-28T08:53:21;8.45;;;2.85;;
16665;SDS011;8446;50.998;6.250;2023-02-28T08:55:55;6.20;;;3.95;;
16665;SDS011;8446;50.998;6.250;2023-02-28T08:58:22;2.25;;;2.05;;
16665;SDS011;8446;50.998;6.250;2023-02-28T09:00:49;9.88;;;3.13;;
16665;SDS011;8446;50.998;6.250;2023-02-28T09:03:17;5.57;;;2.47;;
16665;SDS011;8446;50.998;6.250;2023-02-28T09:05:52;2.78;;;2.25;;
16665;SDS011;8446;50.998;6.250;2023-02-28T09:08:19;2.78;;;2.08;;
16665;SDS011;8446;50.998;6.250;2023-02-28T09:10:46;4.60;;;2.20;;
16665;SDS011;8446;50.998;6.250;2023-02-28T09:13:13;8.57;;;2.58;;
16665;SDS011;8446;50.998;6.250;2023-02-28T09:15:41;7.13;;;2.90;;
16665;SDS011;8446;50.998;6.250;2023-02-28T09:18:08;9.23;;;2.28;;
16665;SDS011;8446;50.998;6.250;2023-02-28T09:20:37;3.65;;;2.00;;
16665;SDS011;8446;50.998;6.250;2023-02-28T09:23:05;2.93;;;1.53;;
16665;SDS011;8446;50.998;6.250;2023-02-28T09:25:33;2.73;;;2.13;;
16665;SDS011;8446;50.998;6.250;2023-02-28T09:28:00;4.50;;;1.70;;
16665;SDS011;8446;50.998;6.250;2023-02-28T09:30:27;1.97;;;1.67;;
16665;SDS011;8446;50.998;6.250;2023-02-28T09:32:55;2.13;;;2.00;;
16665;SDS011;8446;50.998;6.250;2023-02-28T09:35:22;1.93;;;1.60;;
16665;SDS011;8446;50.998;6.250;2023-02-28T09:37:51;1.30;;;1.20;;
16665;SDS011;8446;50.998;6.250;2023-02-28T09:40:21;1.30;;;1.20;;
16665;SDS011;8446;50.998;6.250;2023-02-28T09:42:49;2.33;;;1.50;;
16665;SDS011;8446;50.998;6.250;2023-02-28T09:45:19;1.90;;;1.70;;
16665;SDS011;8446;50.998;6.250;2023-02-28T09:47:48;1.83;;;1.10;;
16665;SDS011;8446;50.998;6.250;2023-02-28T09:50:17;1.77;;;1.20;;
16665;SDS011;8446;50.998;6.250;2023-02-28T09:52:49;4.40;;;1.60;;
16665;SDS011;8446;50.998;6.250;2023-02-28T09:55:19;1.97;;;1.53;;
16665;SDS011;8446;50.998;6.250;2023-02-28T09:57:48;1.20;;;1.10;;
16665;SDS011;8446;50.998;6.250;2023-02-28T10:00:17;1.30;;;1.20;;
16665;SDS011;8446;50.998;6.250;2023-02-28T10:02:47;3.67;;;1.50;;
16665;SDS011;8446;50.998;6.250;2023-02-28T10:05:17;1.53;;;1.37;;
16665;SDS011;8446;50.998;6.250;2023-02-28T10:07:49;1.30;;;1.20;;
16665;SDS011;8446;50.998;6.250;2023-02-28T10:10:21;2.90;;;1.33;;
16665;SDS011;8446;50.998;6.250;2023-02-28T10:12:51;1.83;;;1.10;;
16665;SDS011;8446;50.998;6.250;2023-02-28T10:15:19;8.03;;;1.83;;
16665;SDS011;8446;50.998;6.250;2023-02-28T10:17:48;1.97;;;1.63;;
16665;SDS011;8446;50.998;6.250;2023-02-28T10:20:19;1.73;;;1.03;;
16665;SDS011;8446;50.998;6.250;2023-02-28T10:22:50;1.87;;;1.37;;
16665;SDS011;8446;50.998;6.250;2023-02-28T10:25:19;1.50;;;1.27;;
16665;SDS011;8446;50.998;6.250;2023-02-28T10:27:46;3.13;;;1.20;;
16665;SDS011;8446;50.998;6.250;2023-02-28T10:30:15;1.50;;;1.33;;
16665;SDS011;8446;50.998;6.250;2023-02-28T10:32:44;1.40;;;1.30;;
16665;SDS011;8446;50.998;6.250;2023-02-28T10:35:15;1.60;;;1.33;;
16665;SDS011;8446;50.998;6.250;2023-02-28T10:37:43;1.27;;;1.17;;
16665;SDS011;8446;50.998;6.250;2023-02-28T10:40:27;3.30;;;1.50;;
16665;SDS011;8446;50.998;6.250;2023-02-28T10:42:55;2.20;;;1.73;;
16665;SDS011;8446;50.998;6.250;2023-02-28T10:45:24;1.70;;;1.60;;
16665;SDS011;8446;50.998;6.250;2023-02-28T10:47:52;2.70;;;1.60;;
16665;SDS011;8446;50.998;6.250;2023-02-28T10:50:28;14.33;;;1.47;;
16665;SDS011;8446;50.998;6.250;2023-02-28T10:52:55;2.03;;;1.63;;
16665;SDS011;8446;50.998;6.250;2023-02-28T10:55:31;1.87;;;1.23;;
16665;SDS011;8446;50.998;6.250;2023-02-28T10:57:59;3.17;;;1.73;;
16665;SDS011;8446;50.998;6.250;2023-02-28T11:00:32;2.03;;;1.80;;
16665;SDS011;8446;50.998;6.250;2023-02-28T11:02:59;1.60;;;1.50;;
16665;SDS011;8446;50.998;6.250;2023-02-28T11:05:27;2.43;;;1.60;;
16665;SDS011;8446;50.998;6.250;2023-02-28T11:07:55;2.50;;;2.00;;
16665;SDS011;8446;50.998;6.250;2023-02-28T11:10:25;1.60;;;1.50;;
16665;SDS011;8446;50.998;6.250;2023-02-28T11:12:54;4.30;;;1.70;;
16665;SDS011;8446;50.998;6.250;2023-02-28T11:15:22;1.67;;;1.57;;
16665;SDS011;8446;50.998;6.250;2023-02-28T11:17:54;1.73;;;1.63;;
16665;SDS011;8446;50.998;6.250;2023-02-28T11:20:22;2.40;;;1.67;;
16665;SDS011;8446;50.998;6.250;2023-02-28T11:22:50;4.17;;;1.80;;
16665;SDS011;8446;50.998;6.250;2023-02-28T11:25:19;2.20;;;1.73;;
16665;SDS011;8446;50.998;6.250;2023-02-28T11:27:48;1.70;;;1.57;;
16665;SDS011;8446;50.998;6.250;2023-02-28T11:30:22;6.43;;;2.10;;
16665;SDS011;8446;50.998;6.250;2023-02-28T11:32:50;2.70;;;1.80;;
16665;SDS011;8446;50.998;6.250;2023-02-28T11:35:21;4.30;;;2.07;;
16665;SDS011;8446;50.998;6.250;2023-02-28T11:37:50;2.40;;;1.70;;
16665;SDS011;8446;50.998;6.250;2023-02-28T11:40:18;2.90;;;2.17;;
16665;SDS011;8446;50.998;6.250;2023-02-28T11:42:49;2.80;;;1.90;;
16665;SDS011;8446;50.998;6.250;2023-02-28T11:45:20;2.70;;;1.93;;
16665;SDS011;8446;50.998;6.250;2023-02-28T11:47:52;2.10;;;1.70;;
16665;SDS011;8446;50.998;6.250;2023-02-28T11:50:26;6.43;;;1.90;;
16665;SDS011;8446;50.998;6.250;2023-02-28T11:53:01;2.00;;;1.80;;
16665;SDS011;8446;50.998;6.250;2023-02-28T11:55:30;2.53;;;1.60;;
16665;SDS011;8446;50.998;6.250;2023-02-28T11:58:17;1.90;;;1.57;;
16665;SDS011;8446;50.998;6.250;2023-02-28T12:01:00;2.80;;;1.80;;
16665;SDS011;8446;50.998;6.250;2023-02-28T12:03:30;3.13;;;2.43;;
16665;SDS011;8446;50.998;6.250;2023-02-28T12:06:02;1.80;;;1.67;;
16665;SDS011;8446;50.998;6.250;2023-02-28T12:08:39;2.20;;;1.97;;
16665;SDS011;8446;50.998;6.250;2023-02-28T12:11:10;3.87;;;1.83;;
16665;SDS011;8446;50.998;6.250;2023-02-28T12:13:41;2.10;;;1.90;;
16665;SDS011;8446;50.998;6.250;2023-02-28T12:16:17;2.00;;;1.50;;
16665;SDS011;8446;50.998;6.250;2023-02-28T12:18:53;8.10;;;1.60;;
16665;SDS011;8446;50.998;6.250;2023-02-28T12:21:27;2.80;;;1.90;;
16665;SDS011;8446;50.998;6.250;2023-02-28T12:24:03;2.70;;;1.90;;
16665;SDS011;8446;50.998;6.250;2023-02-28T12:26:34;3.97;;;1.90;;
16665;SDS011;8446;50.998;6.250;2023-02-28T12:29:04;2.00;;;1.80;;
16665;SDS011;8446;50.998;6.250;2023-02-28T12:31:36;3.90;;;1.97;;
16665;SDS011;8446;50.998;6.250;2023-02-28T12:34:05;2.50;;;2.00;;
16665;SDS011;8446;50.998;6.250;2023-02-28T12:36:36;2.17;;;1.63;;
16665;SDS011;8446;50.998;6.250;2023-02-28T12:39:04;6.43;;;1.83;;
16665;SDS011;8446;50.998;6.250;2023-02-28T12:41:35;1.90;;;1.80;;
16665;SDS011;8446;50.998;6.250;2023-02-28T12:44:04;8.80;;;2.40;;
16665;SDS011;8446;50.998;6.250;2023-02-28T12:46:35;1.80;;;1.40;;
16665;SDS011;8446;50.998;6.250;2023-02-28T12:49:05;2.00;;;1.80;;
16665;SDS011;8446;50.998;6.250;2023-02-28T12:51:33;1.83;;;1.60;;
16665;SDS011;8446;50.998;6.250;2023-02-28T12:54:07;2.93;;;2.00;;
16665;SDS011;8446;50.998;6.250;2023-02-28T12:56:39;5.83;;;2.10;;
16665;SDS011;8446;50.998;6.250;2023-02-28T12:59:10;3.73;;;2.00;;
16665;SDS011;8446;50.998;6.250;2023-02-28T13:01:47;3.03;;;2.00;;
16665;SDS011;8446;50.998;6.250;2023-02-28T13:04:28;2.43;;;1.90;;
16665;SDS011;8446;50.998;6.250;2023-02-28T13:07:07;6.30;;;1.83;;
16665;SDS011;8446;50.998;6.250;2023-02-28T13:09:39;2.03;;;1.83;;
16665;SDS011;8446;50.998;6.250;2023-02-28T13:12:12;2.30;;;1.97;;
16665;SDS011;8446;50.998;6.250;2023-02-28T13:14:39;1.80;;;1.70;;
16665;SDS011;8446;50.998;6.250;2023-02-28T13:17:10;3.13;;;2.00;;
16665;SDS011;8446;50.998;6.250;2023-02-28T13:19:39;6.57;;;2.07;;
16665;SDS011;8446;50.998;6.250;2023-02-28T13:22:15;10.53;;;2.33;;
16665;SDS011;8446;50.998;6.250;2023-02-28T13:24:45;1.87;;;1.67;;
16665;SDS011;8446;50.998;6.250;2023-02-28T13:29:58;2.57;;;2.00;;
16665;SDS011;8446;50.998;6.250;2023-02-28T13:32:29;2.10;;;1.90;;
16665;SDS011;8446;50.998;6.250;2023-02-28T13:35:14;4.40;;;2.23;;
16665;SDS011;8446;50.998;6.250;2023-02-28T13:37:42;2.57;;;2.10;;
16665;SDS011;8446;50.998;6.250;2023-02-28T13:40:31;2.80;;;2.17;;
16665;SDS011;8446;50.998;6.250;2023-02-28T13:43:02;4.50;;;1.90;;
16665;SDS011;8446;50.998;6.250;2023-02-28T13:45:30;1.83;;;1.73;;
16665;SDS011;8446;50.998;6.250;2023-02-28T13:48:03;3.13;;;2.30;;
16665;SDS011;8446;50.998;6.250;2023-02-28T13:50:32;2.57;;;2.10;;
16665;SDS011;8446;50.998;6.250;2023-02-28T13:53:23;4.60;;;1.80;;
16665;SDS011;8446;50.998;6.250;2023-02-28T13:55:56;2.30;;;2.10;;
16665;SDS011;8446;50.998;6.250;2023-02-28T13:58:33;2.23;;;2.03;;
16665;SDS011;8446;50.998;6.250;2023-02-28T14:01:05;2.87;;;2.30;;
16665;SDS011;8446;50.998;6.250;2023-02-28T14:03:37;2.60;;;2.30;;
16665;SDS011;8446;50.998;6.250;2023-02-28T14:06:08;4.33;;;2.30;;
16665;SDS011;8446;50.998;6.250;2023-02-28T14:08:35;2.03;;;1.73;;
16665;SDS011;8446;50.998;6.250;2023-02-28T14:11:05;1.87;;;1.77;;
16665;SDS011;8446;50.998;6.250;2023-02-28T14:13:42;2.70;;;2.23;;
16665;SDS011;8446;50.998;6.250;2023-02-28T14:16:11;3.20;;;2.50;;
16665;SDS011;8446;50.998;6.250;2023-02-28T14:18:40;4.30;;;2.40;;
16665;SDS011;8446;50.998;6.250;2023-02-28T14:21:13;4.93;;;2.43;;
16665;SDS011;8446;50.998;6.250;2023-02-28T14:26:41;2.43;;;2.10;;
16665;SDS011;8446;50.998;6.250;2023-02-28T14:29:19;7.60;;;3.53;;
16665;SDS011;8446;50.998;6.250;2023-02-28T14:31:52;2.93;;;2.30;;
16665;SDS011;8446;50.998;6.250;2023-02-28T14:34:26;2.70;;;2.17;;
16665;SDS011;8446;50.998;6.250;2023-02-28T14:36:58;3.53;;;2.37;;
16665;SDS011;8446;50.998;6.250;2023-02-28T14:39:27;2.90;;;2.37;;
16665;SDS011;8446;50.998;6.250;2023-02-28T14:41:57;2.90;;;2.13;;
16665;SDS011;8446;50.998;6.250;2023-02-28T14:44:28;2.13;;;1.83;;
16665;SDS011;8446;50.998;6.250;2023-02-28T14:46:56;3.80;;;2.27;;
16665;SDS011;8446;50.998;6.250;2023-02-28T14:49:25;2.40;;;2.20;;
16665;SDS011;8446;50.998;6.250;2023-02-28T14:52:01;2.60;;;1.90;;
16665;SDS011;8446;50.998;6.250;2023-02-28T14:54:28;3.67;;;2.47;;
16665;SDS011;8446;50.998;6.250;2023-02-28T14:56:57;2.47;;;2.27;;
16665;SDS011;8446;50.998;6.250;2023-02-28T14:59:26;2.90;;;2.30;;
16665;SDS011;8446;50.998;6.250;2023-02-28T15:04:36;2.90;;;2.60;;
16665;SDS011;8446;50.998;6.250;2023-02-28T15:07:09;7.00;;;5.27;;
16665;SDS011;8446;50.998;6.250;2023-02-28T15:09:36;2.67;;;2.47;;
16665;SDS011;8446;50.998;6.250;2023-02-28T15:12:05;4.30;;;2.70;;
16665;SDS011;8446;50.998;6.250;2023-02-28T15:14:32;3.87;;;1.80;;
16665;SDS011;8446;50.998;6.250;2023-02-28T15:17:05;5.37;;;2.20;;
16665;SDS011;8446;50.998;6.250;2023-02-28T15:19:34;2.50;;;2.10;;
16665;SDS011;8446;50.998;6.250;2023-02-28T15:22:03;4.23;;;2.70;;
16665;SDS011;8446;50.998;6.250;2023-02-28T15:24:35;2.63;;;2.20;;
16665;SDS011;8446;50.998;6.250;2023-02-28T15:27:03;4.50;;;2.73;;